sensor_id;sensor_type;location;lat;lon;timestamp;temperature;humidity
843;DHT22;407;48.884;9.126;2023-05-02T00:00:32;10.50;1.00
843;DHT22;407;48.884;9.126;2023-05-02T00:02:58;10.50;1.00
843;DHT22;407;48.884;9.126;2023-05-02T00:05:24;10.50;1.00
843;DHT22;407;48.884;9.126;2023-05-02T00:07:51;10.40;1.00
843;DHT22;407;48.884;9.126;2023-05-02T00:10:17;10.30;1.00
843;DHT22;407;48.884;9.126;2023-05-02T00:12:43;10.20;1.00
843;DHT22;407;48.884;9.126;2023-05-02T00:15:09;10.30;1.00
843;DHT22;407;48.884;9.126;2023-05-02T00:17:35;10.20;1.00
843;DHT22;407;48.884;9.126;2023-05-02T00:20:01;10.10;1.00
843;DHT22;407;48.884;9.126;2023-05-02T00:22:29;10.10;1.00
843;DHT22;407;48.884;9.126;2023-05-02T00:24:57;10.20;1.00
843;DHT22;407;48.884;9.126;2023-05-02T00:27:23;10.20;1.00
843;DHT22;407;48.884;9.126;2023-05-02T00:29:49;10.20;1.00
843;DHT22;407;48.884;9.126;2023-05-02T00:32:16;10.20;1.00
843;DHT22;407;48.884;9.126;2023-05-02T00:34:43;10.10;1.00
843;DHT22;407;48.884;9.126;2023-05-02T00:37:08;10.20;1.00
843;DHT22;407;48.884;9.126;2023-05-02T00:39:34;10.20;1.00
843;DHT22;407;48.884;9.126;2023-05-02T00:42:00;10.20;1.00
843;DHT22;407;48.884;9.126;2023-05-02T00:44:26;10.20;1.00
843;DHT22;407;48.884;9.126;2023-05-02T00:46:53;10.20;1.00
843;DHT22;407;48.884;9.126;2023-05-02T00:49:19;10.10;1.00
843;DHT22;407;48.884;9.126;2023-05-02T00:51:44;10.10;1.00
843;DHT22;407;48.884;9.126;2023-05-02T00:54:12;10.10;1.00
843;DHT22;407;48.884;9.126;2023-05-02T00:56:38;10.10;1.00
843;DHT22;407;48.884;9.126;2023-05-02T00:59:08;10.30;1.00
843;DHT22;407;48.884;9.126;2023-05-02T01:12:57;10.20;1.00
843;DHT22;407;48.884;9.126;2023-05-02T01:15:24;10.10;1.00
843;DHT22;407;48.884;9.126;2023-05-02T01:17:51;10.10;1.00
843;DHT22;407;48.884;9.126;2023-05-02T01:20:22;10.10;1.00
843;DHT22;407;48.884;9.126;2023-05-02T01:22:48;10.00;1.00
843;DHT22;407;48.884;9.126;2023-05-02T01:25:39;9.90;1.00
843;DHT22;407;48.884;9.126;2023-05-02T01:30:43;9.90;1.00
843;DHT22;407;48.884;9.126;2023-05-02T01:33:12;9.90;1.00
843;DHT22;407;48.884;9.126;2023-05-02T01:35:39;9.90;1.00
843;DHT22;407;48.884;9.126;2023-05-02T01:38:07;9.90;1.00
843;DHT22;407;48.884;9.126;2023-05-02T01:40:33;9.90;1.00
843;DHT22;407;48.884;9.126;2023-05-02T01:43:01;9.90;1.00
843;DHT22;407;48.884;9.126;2023-05-02T01:45:30;10.00;1.00
843;DHT22;407;48.884;9.126;2023-05-02T01:47:59;9.90;1.00
843;DHT22;407;48.884;9.126;2023-05-02T01:50:26;10.10;1.00
843;DHT22;407;48.884;9.126;2023-05-02T01:52:53;9.90;1.00
843;DHT22;407;48.884;9.126;2023-05-02T01:55:21;10.00;1.00
843;DHT22;407;48.884;9.126;2023-05-02T01:57:48;10.00;1.00
843;DHT22;407;48.884;9.126;2023-05-02T02:00:18;10.10;1.00
843;DHT22;407;48.884;9.126;2023-05-02T02:02:47;10.00;1.00
843;DHT22;407;48.884;9.126;2023-05-02T02:05:13;10.00;1.00
843;DHT22;407;48.884;9.126;2023-05-02T02:07:40;10.00;1.00
843;DHT22;407;48.884;9.126;2023-05-02T02:10:07;9.90;1.00
843;DHT22;407;48.884;9.126;2023-05-02T02:12:41;9.90;1.00
843;DHT22;407;48.884;9.126;2023-05-02T02:18:13;9.80;1.00
843;DHT22;407;48.884;9.126;2023-05-02T02:20:44;9.80;1.00
843;DHT22;407;48.884;9.126;2023-05-02T02:23:12;9.70;1.00
843;DHT22;407;48.884;9.126;2023-05-02T02:25:39;9.60;1.00
843;DHT22;407;48.884;9.126;2023-05-02T02:28:06;9.70;1.00
843;DHT22;407;48.884;9.126;2023-05-02T02:30:32;10.80;1.00
843;DHT22;407;48.884;9.126;2023-05-02T02:32:57;9.50;1.00
843;DHT22;407;48.884;9.126;2023-05-02T02:35:27;9.50;1.00
843;DHT22;407;48.884;9.126;2023-05-02T02:40:54;9.50;1.00
843;DHT22;407;48.884;9.126;2023-05-02T02:43:28;9.50;1.00
843;DHT22;407;48.884;9.126;2023-05-02T02:46:11;9.40;1.00
843;DHT22;407;48.884;9.126;2023-05-02T02:49:09;9.30;1.00
843;DHT22;407;48.884;9.126;2023-05-02T02:51:44;9.30;1.00
843;DHT22;407;48.884;9.126;2023-05-02T02:54:40;9.30;1.00
843;DHT22;407;48.884;9.126;2023-05-02T02:57:15;9.30;1.00
843;DHT22;407;48.884;9.126;2023-05-02T02:59:48;9.40;1.00
843;DHT22;407;48.884;9.126;2023-05-02T03:02:17;9.40;1.00
843;DHT22;407;48.884;9.126;2023-05-02T03:04:46;9.40;1.00
843;DHT22;407;48.884;9.126;2023-05-02T03:07:12;9.40;1.00
843;DHT22;407;48.884;9.126;2023-05-02T03:09:42;10.50;1.00
843;DHT22;407;48.884;9.126;2023-05-02T03:12:08;9.50;1.00
843;DHT22;407;48.884;9.126;2023-05-02T03:14:34;9.50;1.00
843;DHT22;407;48.884;9.126;2023-05-02T03:17:00;9.50;1.00
843;DHT22;407;48.884;9.126;2023-05-02T03:19:26;9.70;1.00
843;DHT22;407;48.884;9.126;2023-05-02T03:21:51;9.60;1.00
843;DHT22;407;48.884;9.126;2023-05-02T03:24:17;9.70;1.00
843;DHT22;407;48.884;9.126;2023-05-02T03:26:42;9.80;1.00
843;DHT22;407;48.884;9.126;2023-05-02T03:29:08;9.80;1.00
843;DHT22;407;48.884;9.126;2023-05-02T03:31:34;9.80;1.00
843;DHT22;407;48.884;9.126;2023-05-02T03:33:59;9.80;1.00
843;DHT22;407;48.884;9.126;2023-05-02T03:36:25;9.80;1.00
843;DHT22;407;48.884;9.126;2023-05-02T03:38:51;9.90;1.00
843;DHT22;407;48.884;9.126;2023-05-02T03:41:17;9.90;1.00
843;DHT22;407;48.884;9.126;2023-05-02T03:43:45;9.90;1.00
843;DHT22;407;48.884;9.126;2023-05-02T03:46:11;10.00;1.00
843;DHT22;407;48.884;9.126;2023-05-02T03:48:37;10.20;1.00
843;DHT22;407;48.884;9.126;2023-05-02T03:51:04;10.30;1.00
843;DHT22;407;48.884;9.126;2023-05-02T03:53:30;10.30;1.00
843;DHT22;407;48.884;9.126;2023-05-02T03:55:56;10.30;1.00
843;DHT22;407;48.884;9.126;2023-05-02T03:58:22;10.40;1.00
843;DHT22;407;48.884;9.126;2023-05-02T04:00:48;10.50;1.00
843;DHT22;407;48.884;9.126;2023-05-02T04:03:13;10.50;1.00
843;DHT22;407;48.884;9.126;2023-05-02T04:05:39;10.60;1.00
843;DHT22;407;48.884;9.126;2023-05-02T04:08:05;10.60;1.00
843;DHT22;407;48.884;9.126;2023-05-02T04:10:30;10.60;1.00
843;DHT22;407;48.884;9.126;2023-05-02T04:12:56;10.70;1.00
843;DHT22;407;48.884;9.126;2023-05-02T04:15:21;12.00;1.00
843;DHT22;407;48.884;9.126;2023-05-02T04:17:47;10.70;1.00
843;DHT22;407;48.884;9.126;2023-05-02T04:20:13;10.70;1.00
843;DHT22;407;48.884;9.126;2023-05-02T04:22:40;10.70;1.00
843;DHT22;407;48.884;9.126;2023-05-02T04:25:06;10.50;1.00
843;DHT22;407;48.884;9.126;2023-05-02T04:27:32;10.50;1.00
843;DHT22;407;48.884;9.126;2023-05-02T04:29:57;10.50;1.00
843;DHT22;407;48.884;9.126;2023-05-02T04:32:23;10.50;1.00
843;DHT22;407;48.884;9.126;2023-05-02T04:34:49;10.60;1.00
843;DHT22;407;48.884;9.126;2023-05-02T04:37:15;10.50;1.00
843;DHT22;407;48.884;9.126;2023-05-02T04:39:40;10.50;1.00
843;DHT22;407;48.884;9.126;2023-05-02T04:42:06;10.50;1.00
843;DHT22;407;48.884;9.126;2023-05-02T04:44:32;10.50;1.00
843;DHT22;407;48.884;9.126;2023-05-02T04:46:57;10.60;1.00
843;DHT22;407;48.884;9.126;2023-05-02T04:49:23;10.70;1.00
843;DHT22;407;48.884;9.126;2023-05-02T04:51:48;10.70;1.00
843;DHT22;407;48.884;9.126;2023-05-02T04:54:16;10.70;1.00
843;DHT22;407;48.884;9.126;2023-05-02T04:56:42;10.80;1.00
843;DHT22;407;48.884;9.126;2023-05-02T04:59:08;9.60;1.00
843;DHT22;407;48.884;9.126;2023-05-02T05:01:34;10.90;1.00
843;DHT22;407;48.884;9.126;2023-05-02T05:03:59;10.90;1.00
843;DHT22;407;48.884;9.126;2023-05-02T05:06:26;11.00;1.00
843;DHT22;407;48.884;9.126;2023-05-02T05:08:52;11.00;1.00
843;DHT22;407;48.884;9.126;2023-05-02T05:11:17;10.90;1.00
843;DHT22;407;48.884;9.126;2023-05-02T05:13:43;11.00;1.00
843;DHT22;407;48.884;9.126;2023-05-02T05:16:08;11.00;1.00
843;DHT22;407;48.884;9.126;2023-05-02T05:18:34;10.00;1.00
843;DHT22;407;48.884;9.126;2023-05-02T05:21:07;11.10;1.00
843;DHT22;407;48.884;9.126;2023-05-02T05:23:33;11.30;1.00
843;DHT22;407;48.884;9.126;2023-05-02T05:26:08;11.30;1.00
843;DHT22;407;48.884;9.126;2023-05-02T05:28:34;11.50;1.00
843;DHT22;407;48.884;9.126;2023-05-02T05:31:07;11.50;1.00
843;DHT22;407;48.884;9.126;2023-05-02T05:33:34;11.60;1.00
843;DHT22;407;48.884;9.126;2023-05-02T05:36:07;11.60;1.00
843;DHT22;407;48.884;9.126;2023-05-02T05:38:33;11.80;1.00
843;DHT22;407;48.884;9.126;2023-05-02T05:40:59;11.90;99.90
843;DHT22;407;48.884;9.126;2023-05-02T05:43:24;11.80;99.90
843;DHT22;407;48.884;9.126;2023-05-02T05:45:54;11.80;99.90
843;DHT22;407;48.884;9.126;2023-05-02T05:48:20;11.90;99.90
843;DHT22;407;48.884;9.126;2023-05-02T05:50:45;11.90;99.90
843;DHT22;407;48.884;9.126;2023-05-02T05:53:11;12.10;99.90
843;DHT22;407;48.884;9.126;2023-05-02T05:55:37;12.20;99.90
843;DHT22;407;48.884;9.126;2023-05-02T05:58:04;12.40;99.90
843;DHT22;407;48.884;9.126;2023-05-02T06:00:33;12.90;1.00
843;DHT22;407;48.884;9.126;2023-05-02T06:02:58;13.50;1.00
843;DHT22;407;48.884;9.126;2023-05-02T06:05:24;13.40;1.00
843;DHT22;407;48.884;9.126;2023-05-02T06:07:50;13.20;99.90
843;DHT22;407;48.884;9.126;2023-05-02T06:10:15;12.80;99.90
843;DHT22;407;48.884;9.126;2023-05-02T06:12:41;12.80;99.90
843;DHT22;407;48.884;9.126;2023-05-02T06:15:07;12.30;1.00
843;DHT22;407;48.884;9.126;2023-05-02T06:17:32;12.80;99.90
843;DHT22;407;48.884;9.126;2023-05-02T06:19:58;12.60;99.90
843;DHT22;407;48.884;9.126;2023-05-02T06:22:24;12.60;1.00
843;DHT22;407;48.884;9.126;2023-05-02T06:24:49;12.70;80.10
843;DHT22;407;48.884;9.126;2023-05-02T06:27:15;12.80;99.90
843;DHT22;407;48.884;9.126;2023-05-02T06:29:40;12.90;99.90
843;DHT22;407;48.884;9.126;2023-05-02T06:32:06;12.90;99.90
843;DHT22;407;48.884;9.126;2023-05-02T06:34:32;13.00;99.90
843;DHT22;407;48.884;9.126;2023-05-02T06:36:58;12.90;99.90
843;DHT22;407;48.884;9.126;2023-05-02T06:39:24;12.80;99.90
843;DHT22;407;48.884;9.126;2023-05-02T06:41:49;12.80;1.00
843;DHT22;407;48.884;9.126;2023-05-02T06:44:15;12.70;1.00
843;DHT22;407;48.884;9.126;2023-05-02T06:46:41;12.80;1.00
843;DHT22;407;48.884;9.126;2023-05-02T06:49:06;12.60;99.90
843;DHT22;407;48.884;9.126;2023-05-02T06:51:32;13.00;52.30
843;DHT22;407;48.884;9.126;2023-05-02T06:53:58;12.50;99.90
843;DHT22;407;48.884;9.126;2023-05-02T06:56:25;12.40;1.00
843;DHT22;407;48.884;9.126;2023-05-02T06:58:51;12.60;99.90
843;DHT22;407;48.884;9.126;2023-05-02T07:01:17;12.50;99.90
843;DHT22;407;48.884;9.126;2023-05-02T07:03:42;12.60;99.90
843;DHT22;407;48.884;9.126;2023-05-02T07:06:08;12.60;99.90
843;DHT22;407;48.884;9.126;2023-05-02T07:08:34;12.60;99.90
843;DHT22;407;48.884;9.126;2023-05-02T07:11:01;12.60;99.90
843;DHT22;407;48.884;9.126;2023-05-02T07:13:27;12.50;30.10
843;DHT22;407;48.884;9.126;2023-05-02T07:15:53;12.60;1.00
843;DHT22;407;48.884;9.126;2023-05-02T07:18:18;12.70;99.50
843;DHT22;407;48.884;9.126;2023-05-02T07:20:44;12.70;99.90
843;DHT22;407;48.884;9.126;2023-05-02T07:23:09;12.60;99.90
843;DHT22;407;48.884;9.126;2023-05-02T07:25:35;12.70;99.90
843;DHT22;407;48.884;9.126;2023-05-02T07:28:01;12.60;99.90
843;DHT22;407;48.884;9.126;2023-05-02T07:30:27;12.70;99.90
843;DHT22;407;48.884;9.126;2023-05-02T07:32:53;12.70;99.90
843;DHT22;407;48.884;9.126;2023-05-02T07:35:18;12.70;1.00
843;DHT22;407;48.884;9.126;2023-05-02T07:37:44;12.80;1.00
843;DHT22;407;48.884;9.126;2023-05-02T07:40:10;12.80;99.90
843;DHT22;407;48.884;9.126;2023-05-02T07:42:35;12.70;99.90
843;DHT22;407;48.884;9.126;2023-05-02T07:45:01;12.90;1.00
843;DHT22;407;48.884;9.126;2023-05-02T07:47:27;13.20;99.90
843;DHT22;407;48.884;9.126;2023-05-02T07:49:54;13.50;99.90
843;DHT22;407;48.884;9.126;2023-05-02T07:52:20;13.70;99.90
843;DHT22;407;48.884;9.126;2023-05-02T07:54:49;13.30;99.90
843;DHT22;407;48.884;9.126;2023-05-02T07:57:15;13.40;32.30
843;DHT22;407;48.884;9.126;2023-05-02T07:59:41;13.40;1.00
843;DHT22;407;48.884;9.126;2023-05-02T08:02:06;13.60;1.00
843;DHT22;407;48.884;9.126;2023-05-02T08:04:33;13.60;1.00
843;DHT22;407;48.884;9.126;2023-05-02T08:06:59;13.60;1.00
843;DHT22;407;48.884;9.126;2023-05-02T08:09:25;13.50;99.90
843;DHT22;407;48.884;9.126;2023-05-02T08:11:50;13.60;1.00
843;DHT22;407;48.884;9.126;2023-05-02T08:14:16;13.60;1.00
843;DHT22;407;48.884;9.126;2023-05-02T08:16:43;13.70;99.90
843;DHT22;407;48.884;9.126;2023-05-02T08:19:08;13.70;1.00
843;DHT22;407;48.884;9.126;2023-05-02T08:21:35;13.80;99.90
843;DHT22;407;48.884;9.126;2023-05-02T08:24:00;13.80;99.90
843;DHT22;407;48.884;9.126;2023-05-02T08:26:26;13.80;99.90
843;DHT22;407;48.884;9.126;2023-05-02T08:28:53;13.90;1.00
843;DHT22;407;48.884;9.126;2023-05-02T08:31:19;13.90;1.00
843;DHT22;407;48.884;9.126;2023-05-02T08:33:45;14.30;1.00
843;DHT22;407;48.884;9.126;2023-05-02T08:36:12;14.70;99.90
843;DHT22;407;48.884;9.126;2023-05-02T08:38:38;15.20;99.90
843;DHT22;407;48.884;9.126;2023-05-02T08:41:15;15.50;1.00
843;DHT22;407;48.884;9.126;2023-05-02T08:43:44;15.60;99.90
843;DHT22;407;48.884;9.126;2023-05-02T08:46:12;15.70;99.90
843;DHT22;407;48.884;9.126;2023-05-02T08:48:39;15.50;99.90
843;DHT22;407;48.884;9.126;2023-05-02T08:51:11;15.80;99.90
843;DHT22;407;48.884;9.126;2023-05-02T08:53:38;15.90;99.90
843;DHT22;407;48.884;9.126;2023-05-02T08:56:08;15.90;99.90
843;DHT22;407;48.884;9.126;2023-05-02T08:58:36;15.60;99.90
843;DHT22;407;48.884;9.126;2023-05-02T09:01:08;15.40;99.90
843;DHT22;407;48.884;9.126;2023-05-02T09:03:35;15.30;99.90
843;DHT22;407;48.884;9.126;2023-05-02T09:08:29;15.90;99.90
843;DHT22;407;48.884;9.126;2023-05-02T09:10:55;15.70;99.90
843;DHT22;407;48.884;9.126;2023-05-02T09:16:03;16.00;99.90
843;DHT22;407;48.884;9.126;2023-05-02T09:18:36;17.10;99.90
843;DHT22;407;48.884;9.126;2023-05-02T09:21:10;18.00;33.90
843;DHT22;407;48.884;9.126;2023-05-02T09:28:48;17.20;1.00
843;DHT22;407;48.884;9.126;2023-05-02T09:31:22;17.30;1.00
843;DHT22;407;48.884;9.126;2023-05-02T09:33:48;17.20;1.00
843;DHT22;407;48.884;9.126;2023-05-02T09:36:16;17.20;1.00
843;DHT22;407;48.884;9.126;2023-05-02T09:38:43;16.70;1.00
843;DHT22;407;48.884;9.126;2023-05-02T09:41:09;17.20;1.00
843;DHT22;407;48.884;9.126;2023-05-02T09:43:35;18.40;1.00
843;DHT22;407;48.884;9.126;2023-05-02T09:50:56;22.60;99.90
843;DHT22;407;48.884;9.126;2023-05-02T09:53:26;22.20;99.90
843;DHT22;407;48.884;9.126;2023-05-02T09:56:00;22.60;99.90
843;DHT22;407;48.884;9.126;2023-05-02T09:58:26;22.50;99.90
843;DHT22;407;48.884;9.126;2023-05-02T10:00:52;21.80;99.90
843;DHT22;407;48.884;9.126;2023-05-02T10:03:18;21.00;99.90
843;DHT22;407;48.884;9.126;2023-05-02T10:05:45;21.60;99.90
843;DHT22;407;48.884;9.126;2023-05-02T10:08:11;22.00;99.90
843;DHT22;407;48.884;9.126;2023-05-02T10:10:44;22.50;99.90
843;DHT22;407;48.884;9.126;2023-05-02T10:13:12;22.60;99.90
843;DHT22;407;48.884;9.126;2023-05-02T10:15:43;22.50;99.90
843;DHT22;407;48.884;9.126;2023-05-02T10:18:14;21.70;99.90
843;DHT22;407;48.884;9.126;2023-05-02T10:20:47;21.30;99.90
843;DHT22;407;48.884;9.126;2023-05-02T10:23:18;21.60;99.90
843;DHT22;407;48.884;9.126;2023-05-02T10:25:44;21.80;99.90
843;DHT22;407;48.884;9.126;2023-05-02T10:28:10;22.00;99.90
843;DHT22;407;48.884;9.126;2023-05-02T10:30:38;21.80;99.90
843;DHT22;407;48.884;9.126;2023-05-02T10:33:04;21.30;99.90
843;DHT22;407;48.884;9.126;2023-05-02T10:35:31;21.60;99.90
843;DHT22;407;48.884;9.126;2023-05-02T10:37:57;21.40;99.90
843;DHT22;407;48.884;9.126;2023-05-02T10:40:24;21.00;99.90
843;DHT22;407;48.884;9.126;2023-05-02T10:42:51;20.70;99.90
843;DHT22;407;48.884;9.126;2023-05-02T10:45:30;20.70;99.90
843;DHT22;407;48.884;9.126;2023-05-02T10:48:17;20.30;99.90
843;DHT22;407;48.884;9.126;2023-05-02T10:50:50;19.50;99.90
843;DHT22;407;48.884;9.126;2023-05-02T10:56:17;18.60;99.90
843;DHT22;407;48.884;9.126;2023-05-02T10:58:47;18.90;99.90
843;DHT22;407;48.884;9.126;2023-05-02T11:06:31;18.30;99.90
843;DHT22;407;48.884;9.126;2023-05-02T11:11:44;18.50;99.90
843;DHT22;407;48.884;9.126;2023-05-02T11:14:11;18.60;99.90
843;DHT22;407;48.884;9.126;2023-05-02T11:19:21;19.20;99.90
843;DHT22;407;48.884;9.126;2023-05-02T11:21:47;19.80;99.90
843;DHT22;407;48.884;9.126;2023-05-02T11:24:41;20.10;99.90
843;DHT22;407;48.884;9.126;2023-05-02T11:30:08;19.50;99.90
843;DHT22;407;48.884;9.126;2023-05-02T11:35:22;20.00;99.90
843;DHT22;407;48.884;9.126;2023-05-02T11:37:54;19.90;99.90
843;DHT22;407;48.884;9.126;2023-05-02T11:40:20;20.00;99.90
843;DHT22;407;48.884;9.126;2023-05-02T11:42:46;20.00;99.90
843;DHT22;407;48.884;9.126;2023-05-02T11:45:12;20.20;99.90
843;DHT22;407;48.884;9.126;2023-05-02T11:47:39;20.80;99.90
843;DHT22;407;48.884;9.126;2023-05-02T11:50:06;21.30;99.90
843;DHT22;407;48.884;9.126;2023-05-02T11:52:39;20.70;99.90
843;DHT22;407;48.884;9.126;2023-05-02T11:55:10;19.90;99.90
843;DHT22;407;48.884;9.126;2023-05-02T11:57:36;19.20;99.90
843;DHT22;407;48.884;9.126;2023-05-02T12:00:04;19.30;99.90
843;DHT22;407;48.884;9.126;2023-05-02T12:02:38;19.40;99.90
843;DHT22;407;48.884;9.126;2023-05-02T12:05:05;19.40;99.90
843;DHT22;407;48.884;9.126;2023-05-02T12:07:45;19.30;99.90
843;DHT22;407;48.884;9.126;2023-05-02T12:10:11;19.40;99.90
843;DHT22;407;48.884;9.126;2023-05-02T12:12:38;19.30;99.90
843;DHT22;407;48.884;9.126;2023-05-02T12:15:06;19.10;99.90
843;DHT22;407;48.884;9.126;2023-05-02T12:17:37;19.00;99.90
843;DHT22;407;48.884;9.126;2023-05-02T12:20:06;18.70;99.90
843;DHT22;407;48.884;9.126;2023-05-02T12:22:33;18.80;99.90
843;DHT22;407;48.884;9.126;2023-05-02T12:24:59;19.00;99.90
843;DHT22;407;48.884;9.126;2023-05-02T12:27:25;19.00;99.90
843;DHT22;407;48.884;9.126;2023-05-02T12:29:52;18.90;99.90
843;DHT22;407;48.884;9.126;2023-05-02T12:32:32;18.80;99.90
843;DHT22;407;48.884;9.126;2023-05-02T12:34:58;18.60;99.90
843;DHT22;407;48.884;9.126;2023-05-02T12:37:25;18.80;99.90
843;DHT22;407;48.884;9.126;2023-05-02T12:39:52;19.20;99.90
843;DHT22;407;48.884;9.126;2023-05-02T12:42:20;19.50;99.90
843;DHT22;407;48.884;9.126;2023-05-02T12:44:47;20.00;99.90
843;DHT22;407;48.884;9.126;2023-05-02T12:47:14;20.30;99.90
843;DHT22;407;48.884;9.126;2023-05-02T12:49:56;20.60;99.90
843;DHT22;407;48.884;9.126;2023-05-02T12:52:50;20.50;99.90
843;DHT22;407;48.884;9.126;2023-05-02T12:55:22;20.60;99.90
843;DHT22;407;48.884;9.126;2023-05-02T12:57:49;20.40;99.90
843;DHT22;407;48.884;9.126;2023-05-02T13:00:16;19.90;99.90
843;DHT22;407;48.884;9.126;2023-05-02T13:02:42;20.00;99.90
843;DHT22;407;48.884;9.126;2023-05-02T13:07:40;19.40;99.90
843;DHT22;407;48.884;9.126;2023-05-02T13:10:06;19.30;99.90
843;DHT22;407;48.884;9.126;2023-05-02T13:12:34;19.50;99.90
843;DHT22;407;48.884;9.126;2023-05-02T13:15:06;19.40;99.90
843;DHT22;407;48.884;9.126;2023-05-02T13:17:35;19.20;99.90
843;DHT22;407;48.884;9.126;2023-05-02T13:20:01;19.00;99.90
843;DHT22;407;48.884;9.126;2023-05-02T13:22:27;18.70;99.90
843;DHT22;407;48.884;9.126;2023-05-02T13:24:53;18.60;99.90
843;DHT22;407;48.884;9.126;2023-05-02T13:27:22;18.90;99.90
843;DHT22;407;48.884;9.126;2023-05-02T13:29:50;19.00;99.90
843;DHT22;407;48.884;9.126;2023-05-02T13:32:16;19.20;99.90
843;DHT22;407;48.884;9.126;2023-05-02T13:34:43;19.30;99.90
843;DHT22;407;48.884;9.126;2023-05-02T13:37:09;19.30;99.90
843;DHT22;407;48.884;9.126;2023-05-02T13:39:35;19.50;99.90
843;DHT22;407;48.884;9.126;2023-05-02T13:42:01;19.50;99.90
843;DHT22;407;48.884;9.126;2023-05-02T13:44:28;19.00;99.90
843;DHT22;407;48.884;9.126;2023-05-02T13:46:53;19.10;99.90
843;DHT22;407;48.884;9.126;2023-05-02T13:49:19;19.10;99.90
843;DHT22;407;48.884;9.126;2023-05-02T13:51:45;19.00;99.90
843;DHT22;407;48.884;9.126;2023-05-02T13:54:11;18.70;99.90
843;DHT22;407;48.884;9.126;2023-05-02T13:56:37;18.50;99.90
843;DHT22;407;48.884;9.126;2023-05-02T13:59:04;18.60;99.90
843;DHT22;407;48.884;9.126;2023-05-02T14:01:30;18.50;99.90
843;DHT22;407;48.884;9.126;2023-05-02T14:03:56;18.80;99.90
843;DHT22;407;48.884;9.126;2023-05-02T14:06:21;19.40;99.90
843;DHT22;407;48.884;9.126;2023-05-02T14:08:47;19.70;99.90
843;DHT22;407;48.884;9.126;2023-05-02T14:11:13;19.70;99.90
843;DHT22;407;48.884;9.126;2023-05-02T14:13:38;20.00;99.90
843;DHT22;407;48.884;9.126;2023-05-02T14:16:04;20.40;99.90
843;DHT22;407;48.884;9.126;2023-05-02T14:18:32;20.80;99.90
843;DHT22;407;48.884;9.126;2023-05-02T14:20:57;21.00;99.90
843;DHT22;407;48.884;9.126;2023-05-02T14:23:25;21.10;99.90
843;DHT22;407;48.884;9.126;2023-05-02T14:25:53;21.20;99.90
843;DHT22;407;48.884;9.126;2023-05-02T14:28:18;21.20;99.90
843;DHT22;407;48.884;9.126;2023-05-02T14:30:44;21.40;99.90
843;DHT22;407;48.884;9.126;2023-05-02T14:33:09;21.40;99.90
843;DHT22;407;48.884;9.126;2023-05-02T14:35:35;20.90;99.90
843;DHT22;407;48.884;9.126;2023-05-02T14:38:01;21.00;99.90
843;DHT22;407;48.884;9.126;2023-05-02T14:40:28;20.90;99.90
843;DHT22;407;48.884;9.126;2023-05-02T14:42:53;20.60;99.90
843;DHT22;407;48.884;9.126;2023-05-02T14:45:19;20.20;99.90
843;DHT22;407;48.884;9.126;2023-05-02T14:47:44;20.00;99.90
843;DHT22;407;48.884;9.126;2023-05-02T14:50:10;19.80;99.90
843;DHT22;407;48.884;9.126;2023-05-02T14:52:36;19.70;99.90
843;DHT22;407;48.884;9.126;2023-05-02T14:55:01;19.90;99.90
843;DHT22;407;48.884;9.126;2023-05-02T14:57:27;20.10;99.90
843;DHT22;407;48.884;9.126;2023-05-02T14:59:53;19.70;99.90
843;DHT22;407;48.884;9.126;2023-05-02T15:02:19;19.60;99.90
843;DHT22;407;48.884;9.126;2023-05-02T15:04:46;19.60;99.90
843;DHT22;407;48.884;9.126;2023-05-02T15:07:11;19.80;99.90
843;DHT22;407;48.884;9.126;2023-05-02T15:09:37;19.90;99.90
843;DHT22;407;48.884;9.126;2023-05-02T15:12:03;19.80;99.90
843;DHT22;407;48.884;9.126;2023-05-02T15:14:28;19.70;99.90
843;DHT22;407;48.884;9.126;2023-05-02T15:16:54;19.80;99.90
843;DHT22;407;48.884;9.126;2023-05-02T15:19:20;20.00;99.90
843;DHT22;407;48.884;9.126;2023-05-02T15:21:49;20.00;99.90
843;DHT22;407;48.884;9.126;2023-05-02T15:24:18;20.10;99.90
843;DHT22;407;48.884;9.126;2023-05-02T15:26:43;19.90;99.90
843;DHT22;407;48.884;9.126;2023-05-02T15:29:09;19.70;99.90
843;DHT22;407;48.884;9.126;2023-05-02T15:31:35;19.80;99.90
843;DHT22;407;48.884;9.126;2023-05-02T15:34:01;20.00;99.90
843;DHT22;407;48.884;9.126;2023-05-02T15:36:27;19.80;99.90
843;DHT22;407;48.884;9.126;2023-05-02T15:38:57;19.50;99.90
843;DHT22;407;48.884;9.126;2023-05-02T15:41:24;19.60;99.90
843;DHT22;407;48.884;9.126;2023-05-02T15:43:52;19.60;99.90
843;DHT22;407;48.884;9.126;2023-05-02T15:46:18;19.70;99.90
843;DHT22;407;48.884;9.126;2023-05-02T15:48:43;19.90;99.90
843;DHT22;407;48.884;9.126;2023-05-02T15:51:09;19.80;99.90
843;DHT22;407;48.884;9.126;2023-05-02T15:53:36;19.70;99.90
843;DHT22;407;48.884;9.126;2023-05-02T15:56:07;19.80;99.90
843;DHT22;407;48.884;9.126;2023-05-02T15:58:33;19.90;99.90
843;DHT22;407;48.884;9.126;2023-05-02T16:00:59;20.00;99.90
843;DHT22;407;48.884;9.126;2023-05-02T16:03:25;19.90;99.90
843;DHT22;407;48.884;9.126;2023-05-02T16:05:51;19.90;99.90
843;DHT22;407;48.884;9.126;2023-05-02T16:08:17;19.90;99.90
843;DHT22;407;48.884;9.126;2023-05-02T16:10:43;19.70;99.90
843;DHT22;407;48.884;9.126;2023-05-02T16:13:09;19.60;99.90
843;DHT22;407;48.884;9.126;2023-05-02T16:15:34;19.60;99.90
843;DHT22;407;48.884;9.126;2023-05-02T16:18:00;19.70;99.90
843;DHT22;407;48.884;9.126;2023-05-02T16:20:26;19.60;99.90
843;DHT22;407;48.884;9.126;2023-05-02T16:22:53;19.60;99.90
843;DHT22;407;48.884;9.126;2023-05-02T16:25:19;19.40;99.90
843;DHT22;407;48.884;9.126;2023-05-02T16:27:45;19.20;99.90
843;DHT22;407;48.884;9.126;2023-05-02T16:30:11;19.10;99.90
843;DHT22;407;48.884;9.126;2023-05-02T16:32:37;19.10;99.90
843;DHT22;407;48.884;9.126;2023-05-02T16:35:04;19.00;99.90
843;DHT22;407;48.884;9.126;2023-05-02T16:37:32;18.90;99.90
843;DHT22;407;48.884;9.126;2023-05-02T16:39:58;18.80;99.90
843;DHT22;407;48.884;9.126;2023-05-02T16:42:25;18.90;99.90
843;DHT22;407;48.884;9.126;2023-05-02T16:44:50;18.80;99.90
843;DHT22;407;48.884;9.126;2023-05-02T16:47:16;19.00;99.90
843;DHT22;407;48.884;9.126;2023-05-02T16:49:41;18.90;99.90
843;DHT22;407;48.884;9.126;2023-05-02T16:52:07;18.90;99.90
843;DHT22;407;48.884;9.126;2023-05-02T16:54:32;18.90;99.90
843;DHT22;407;48.884;9.126;2023-05-02T16:56:58;19.10;99.90
843;DHT22;407;48.884;9.126;2023-05-02T16:59:27;19.10;99.90
843;DHT22;407;48.884;9.126;2023-05-02T17:01:53;19.00;99.90
843;DHT22;407;48.884;9.126;2023-05-02T17:04:18;19.10;99.90
843;DHT22;407;48.884;9.126;2023-05-02T17:06:45;19.10;99.90
843;DHT22;407;48.884;9.126;2023-05-02T17:09:12;19.00;99.90
843;DHT22;407;48.884;9.126;2023-05-02T17:11:38;18.90;99.90
843;DHT22;407;48.884;9.126;2023-05-02T17:14:03;18.80;99.90
843;DHT22;407;48.884;9.126;2023-05-02T17:16:29;18.80;99.90
843;DHT22;407;48.884;9.126;2023-05-02T17:18:54;18.90;99.90
843;DHT22;407;48.884;9.126;2023-05-02T17:21:20;18.80;99.90
843;DHT22;407;48.884;9.126;2023-05-02T17:23:46;18.90;99.90
843;DHT22;407;48.884;9.126;2023-05-02T17:26:12;18.50;99.90
843;DHT22;407;48.884;9.126;2023-05-02T17:28:41;18.60;99.90
843;DHT22;407;48.884;9.126;2023-05-02T17:31:08;18.40;99.90
843;DHT22;407;48.884;9.126;2023-05-02T17:33:34;18.20;99.90
843;DHT22;407;48.884;9.126;2023-05-02T17:36:00;17.90;99.90
843;DHT22;407;48.884;9.126;2023-05-02T17:38:25;17.90;99.90
843;DHT22;407;48.884;9.126;2023-05-02T17:40:51;17.70;99.90